< Cyclone 198214 1982 Season Cyclone 198217 >
Cyclone 198215 (DOMINIC)
General InformationDetailed Track InformationTrack Information on Google MapsList of All Images || ResourceGoogle EarthGE AnimationAtom FeedGeoJSON
Detalied Best Track Wind (Time Zone = UTC)
Year Month Day Hour Lat. Long. Wind (kt) Gust (kt) Direc. of Major Storm Axis Radius of Major Storm Axis (nm) Radius of Minor Storm Axis (nm) Direc. of Major Gale Axis Radius of Major Gale Axis (nm) Radius of Minor Gale Axis (nm) Image
1982 4 4 21 -11.3 139.7 25 45 symmetric - - symmetric - - Image
1982 4 5 00 -11.4 139.6 25 45 symmetric - - symmetric - - Image
1982 4 5 03 -11.5 139.5 30 45 symmetric - - symmetric - - Image
1982 4 5 06 -11.4 139.3 40 55 symmetric - - symmetric - - Image
1982 4 5 09 -11.2 139.2 45 65 symmetric - - symmetric - - Image
1982 4 5 12 -11.1 139.3 45 65 symmetric - - symmetric - - Image
1982 4 5 15 -11.3 139.3 50 70 symmetric - - symmetric - - Image
1982 4 5 18 -11.4 139.4 50 70 symmetric - - symmetric - - Image
1982 4 5 21 -11.6 139.4 50 70 symmetric - - symmetric - - Image
1982 4 6 00 -11.7 139.4 55 75 symmetric - - symmetric - - Image
1982 4 6 03 -12.0 139.4 55 75 symmetric - - symmetric - - Image
1982 4 6 06 -12.2 139.5 60 85 symmetric - - symmetric - - Image
1982 4 6 09 -12.5 139.6 60 85 symmetric - - symmetric - - Image
1982 4 6 12 -12.8 139.8 65 90 symmetric - - symmetric - - Image
1982 4 6 15 -12.9 140.0 70 100 symmetric - - symmetric - - Image
1982 4 6 18 -13.0 140.1 75 105 symmetric - - symmetric - - Image
1982 4 6 21 -13.2 140.2 80 110 symmetric - - symmetric - - Image
1982 4 7 00 -13.7 140.3 80 110 symmetric - - symmetric - - Image
1982 4 7 03 -14.0 140.4 85 120 symmetric - - symmetric - - Image
1982 4 7 06 -14.1 140.8 100 140 symmetric - - symmetric - - Image
1982 4 7 09 -14.2 141.1 110 155 symmetric - - symmetric - - Image
1982 4 7 12 -14.3 141.4 110 155 symmetric - - symmetric - - Image
1982 4 7 15 -14.4 141.9 85 120 symmetric - - symmetric - - Image
1982 4 7 18 -14.5 142.3 60 85 symmetric - - symmetric - - Image
1982 4 7 21 -14.6 142.6 45 65 symmetric - - symmetric - - Image
1982 4 8 00 -14.6 143.1 35 50 symmetric - - symmetric - - Image
1982 4 8 03 -14.6 143.6 25 45 symmetric - - symmetric - - Image
1982 4 8 06 -14.5 144.2 25 45 symmetric - - symmetric - - Image
1982 4 8 07 -14.4 144.6 25 45 symmetric - - symmetric - - Image
1982 4 8 09 -14.6 145.1 25 45 symmetric - - symmetric - - Image
1982 4 8 12 -14.9 145.6 25 45 symmetric - - symmetric - - Image
1982 4 8 15 -15.0 146.0 25 45 symmetric - - symmetric - - Image
1982 4 8 18 -15.0 146.3 25 45 symmetric - - symmetric - - Image
1982 4 8 21 -14.9 146.6 25 45 symmetric - - symmetric - - Image
1982 4 9 00 -14.9 147.0 25 45 symmetric - - symmetric - - Image
1982 4 9 03 -14.8 147.5 25 45 symmetric - - symmetric - - Image
1982 4 9 06 -14.7 147.9 30 45 symmetric - - symmetric - - Image
1982 4 9 12 -14.5 148.8 30 45 symmetric - - symmetric - - Image
1982 4 9 18 -14.2 149.4 30 45 symmetric - - symmetric - - Image
1982 4 10 00 -13.9 150.0 30 45 symmetric - - symmetric - - Image
1982 4 10 06 -13.8 150.7 30 45 symmetric - - symmetric - - Image
1982 4 10 12 -13.8 151.4 30 45 symmetric - - symmetric - - Image
1982 4 10 18 -14.0 152.0 30 45 symmetric - - symmetric - - Image
1982 4 11 00 -14.2 152.2 30 45 symmetric - - symmetric - - Image
1982 4 11 06 -14.3 152.3 30 45 symmetric - - symmetric - - Image
1982 4 11 12 -14.5 152.5 30 45 symmetric - - symmetric - - Image
1982 4 11 18 -14.7 152.5 30 45 symmetric - - symmetric - - Image
1982 4 12 00 -14.9 152.3 25 45 symmetric - - symmetric - - Image
1982 4 12 06 -15.1 152.2 25 45 symmetric - - symmetric - - Image
1982 4 12 12 -15.4 152.0 25 45 symmetric - - symmetric - - Image
1982 4 12 18 -16.0 151.6 25 45 symmetric - - symmetric - - Image
1982 4 13 00 -16.8 150.9 25 45 symmetric - - symmetric - - Image
1982 4 13 06 -17.5 149.6 25 45 symmetric - - symmetric - - Image
1982 4 13 09 -17.2 148.8 25 45 symmetric - - symmetric - - Image
1982 4 13 12 -16.7 148.0 25 45 symmetric - - symmetric - - Image
1982 4 13 15 -16.3 147.2 25 45 symmetric - - symmetric - - Image
1982 4 13 18 -15.9 146.8 25 45 symmetric - - symmetric - - Image
1982 4 13 21 -15.7 146.4 25 45 symmetric - - symmetric - - Image
1982 4 14 00 -15.5 146.1 25 45 symmetric - - symmetric - - Image
1982 4 14 03 -15.0 145.4 20 45 symmetric - - symmetric - - Image
1982 4 14 06 -15.3 144.5 20 45 symmetric - - symmetric - - Image
1982 4 14 09 -15.8 143.9 20 45 symmetric - - symmetric - - Image
< Cyclone 198214 1982 Season Cyclone 198217 >

Help